createdAt,value
2022-11-28T00:03:14.902Z,209.20
2022-11-28T00:08:19.654Z,157.90
2022-11-28T00:13:23.416Z,149.70
2022-11-28T00:27:03.874Z,91.50
2022-11-28T00:38:57.797Z,85.00
2022-11-28T00:51:26.651Z,59.30
2022-11-28T00:56:38.365Z,40.60
2022-11-28T01:08:50.633Z,70.20
2022-11-28T01:14:00.720Z,110.60
2022-11-28T01:19:05.544Z,85.00
2022-11-28T01:24:10.517Z,67.50
2022-11-28T01:29:14.334Z,23.20
2022-11-28T01:35:08.435Z,59.00
2022-11-28T01:40:13.794Z,29.70
2022-11-28T01:45:32.373Z,60.50
2022-11-28T01:50:37.929Z,47.10
2022-11-28T02:04:24.202Z,56.80
2022-11-28T02:09:27.755Z,31.80
2022-11-28T02:15:32.647Z,52.30
2022-11-28T02:20:54.841Z,58.60
2022-11-28T02:26:33.611Z,62.50
2022-11-28T02:32:25.223Z,44.90
2022-11-28T02:44:52.772Z,65.90
2022-11-28T02:50:13.898Z,45.00
2022-11-28T02:59:50.105Z,26.00
2022-11-28T03:05:41.175Z,35.60
2022-11-28T03:11:22.023Z,33.30
2022-11-28T03:16:34.713Z,27.00
2022-11-28T03:21:59.678Z,24.20
2022-11-28T03:27:18.771Z,27.00
2022-11-28T03:32:32.352Z,41.00
2022-11-28T03:37:46.489Z,21.10
2022-11-28T03:42:59.113Z,26.20
2022-11-28T03:48:40.322Z,30.50
2022-11-28T03:53:51.933Z,34.60
2022-11-28T03:59:04.587Z,32.40
2022-11-28T04:04:23.542Z,33.10
2022-11-28T04:09:46.142Z,32.70
2022-11-28T04:16:13.278Z,25.90
2022-11-28T04:21:31.440Z,39.80
2022-11-28T04:26:54.244Z,34.30
2022-11-28T04:33:20.051Z,10.10
2022-11-28T04:38:28.734Z,43.20
2022-11-28T04:54:24.370Z,17.80
2022-11-28T04:59:32.037Z,11.50
2022-11-28T05:04:37.591Z,15.60
2022-11-28T05:09:41.201Z,21.80
2022-11-28T05:14:45.061Z,76.10
2022-11-28T05:19:48.849Z,23.50
2022-11-28T05:24:53.005Z,39.70
2022-11-28T05:29:56.622Z,11.90
2022-11-28T05:35:00.260Z,23.50
2022-11-28T05:40:05.173Z,20.20
2022-11-28T05:45:09.522Z,32.30
2022-11-28T05:50:13.202Z,30.00
2022-11-28T05:55:17.227Z,25.50
2022-11-28T06:00:21.882Z,33.10
2022-11-28T06:05:41.480Z,31.30
2022-11-28T06:10:45.739Z,26.80
2022-11-28T06:15:49.489Z,31.70
2022-11-28T06:20:52.990Z,34.00
2022-11-28T06:25:56.813Z,14.10
2022-11-28T06:39:47.217Z,36.30
2022-11-28T06:50:41.320Z,34.80
2022-11-28T07:02:56.235Z,172.30
2022-11-28T07:08:01.246Z,74.60
2022-11-28T07:13:05.707Z,38.20
2022-11-28T07:18:09.568Z,35.40
2022-11-28T07:46:11.989Z,43.70
2022-11-28T07:51:42.645Z,44.60
2022-11-28T07:58:15.827Z,39.90
2022-11-28T08:03:19.614Z,53.30
2022-11-28T08:29:18.169Z,55.40
2022-11-28T08:34:47.498Z,60.60
2022-11-28T08:39:51.414Z,39.20
2022-11-28T08:45:45.420Z,75.70
2022-11-28T08:57:39.228Z,38.10
2022-11-28T09:02:43.320Z,19.80
2022-11-28T09:07:47.246Z,59.10
2022-11-28T09:12:52.601Z,52.40
2022-11-28T09:17:56.299Z,27.50
2022-11-28T09:23:00.127Z,24.90
2022-11-28T09:35:11.967Z,13.70
2022-11-28T09:40:26.154Z,19.90
2022-11-28T09:55:55.250Z,20.00
2022-11-28T10:01:11.417Z,20.80
2022-11-28T10:06:48.107Z,30.20
2022-11-28T10:12:07.551Z,36.00
2022-11-28T10:17:23.551Z,40.00
2022-11-28T10:32:43.640Z,19.40
2022-11-28T10:37:46.734Z,55.80
2022-11-28T10:43:33.277Z,59.90
2022-11-28T10:49:28.799Z,61.00
2022-11-28T10:55:02.060Z,45.50
2022-11-28T11:00:19.574Z,46.40
2022-11-28T11:05:47.127Z,59.80
2022-11-28T11:11:31.946Z,72.80
2022-11-28T11:17:51.598Z,53.10
2022-11-28T11:23:00.991Z,38.10
2022-11-28T11:35:45.772Z,43.30
2022-11-28T11:41:29.193Z,36.00
2022-11-28T11:47:01.652Z,36.70
2022-11-28T11:53:57.019Z,50.40
2022-11-28T11:59:05.508Z,122.50
2022-11-28T12:04:45.005Z,78.40
2022-11-28T12:19:25.051Z,32.90
2022-11-28T12:25:23.456Z,50.00
2022-11-28T12:45:18.446Z,97.10
2022-11-28T12:50:53.837Z,94.80
2022-11-28T13:06:40.473Z,59.90
2022-11-28T13:12:27.684Z,101.80
2022-11-28T13:18:08.636Z,85.40
2022-11-28T13:23:41.729Z,185.50
2022-11-28T13:41:43.306Z,297.80
2022-11-28T13:57:39.601Z,610.50
2022-11-28T14:43:25.047Z,138.70
2022-11-28T14:55:50.412Z,164.40
2022-11-28T15:08:02.023Z,146.90
2022-11-28T15:13:27.528Z,276.60
2022-11-28T15:18:33.597Z,257.60
2022-11-28T15:23:41.622Z,259.50
2022-11-28T15:28:45.962Z,398.50
2022-11-28T15:33:51.309Z,561.40
2022-11-28T15:38:57.380Z,469.30
2022-11-28T15:58:57.557Z,269.60
2022-11-28T16:11:11.266Z,160.30
2022-11-28T16:16:41.343Z,161.70
2022-11-28T16:21:52.941Z,151.70
2022-11-28T16:27:04.073Z,134.60
2022-11-28T16:32:42.059Z,149.80
2022-11-28T16:37:46.280Z,213.90
2022-11-28T16:42:59.428Z,312.60
2022-11-28T16:48:09.273Z,225.00
2022-11-28T16:53:45.362Z,94.80
2022-11-28T16:59:14.061Z,130.00
2022-11-28T17:04:23.542Z,141.20
2022-11-28T17:09:27.710Z,264.70
2022-11-28T17:14:32.427Z,230.10
2022-11-28T17:19:36.899Z,122.60
2022-11-28T17:24:41.288Z,108.40
2022-11-28T17:29:45.396Z,99.00
2022-11-28T17:34:49.648Z,115.40
2022-11-28T17:40:12.855Z,144.90
2022-11-28T17:45:17.245Z,132.70
2022-11-28T17:50:21.255Z,97.30
2022-11-28T18:02:33.633Z,143.20
2022-11-28T18:07:37.519Z,125.20
2022-11-28T18:13:10.916Z,92.60
2022-11-28T18:18:41.225Z,123.50
2022-11-28T18:23:53.667Z,122.90
2022-11-28T18:29:00.450Z,108.80
2022-11-28T18:34:08.771Z,137.90
2022-11-28T18:39:16.085Z,93.30
2022-11-28T18:44:20.684Z,94.60
2022-11-28T18:49:24.944Z,62.60
2022-11-28T18:54:31.526Z,89.20
2022-11-28T18:59:36.857Z,59.00
2022-11-28T19:04:41.364Z,137.10
2022-11-28T19:09:46.229Z,92.50
2022-11-28T19:14:51.694Z,120.40
2022-11-28T19:19:57.963Z,113.70
2022-11-28T19:25:04.711Z,81.10
2022-11-28T19:30:09.900Z,118.80
2022-11-28T19:35:14.691Z,97.20
2022-11-28T19:40:19.657Z,103.80
2022-11-28T19:45:25.375Z,108.30
2022-11-28T19:50:30.032Z,89.90
2022-11-28T19:55:37.559Z,58.60
2022-11-28T20:00:42.877Z,129.30
2022-11-28T20:05:47.274Z,84.90
2022-11-28T20:10:51.971Z,109.80
2022-11-28T20:15:56.464Z,82.90
2022-11-28T20:21:10.910Z,130.80
2022-11-28T20:26:17.761Z,120.80
2022-11-28T20:31:35.877Z,115.30
2022-11-28T20:36:41.330Z,99.40
2022-11-28T20:41:45.385Z,64.70
2022-11-28T20:46:50.959Z,131.40
2022-11-28T20:51:54.954Z,164.80
2022-11-28T21:02:24.956Z,112.50
2022-11-28T21:07:29.887Z,65.00
2022-11-28T21:12:34.316Z,78.40
2022-11-28T21:17:38.273Z,109.30
2022-11-28T21:22:42.174Z,110.90
2022-11-28T21:42:03.463Z,72.30
2022-11-28T21:47:59.569Z,47.60
2022-11-28T21:53:03.579Z,69.90
2022-11-28T22:12:48.990Z,48.70
2022-11-28T22:18:17.591Z,64.40
2022-11-28T22:32:05.273Z,53.30
2022-11-28T22:37:09.968Z,49.90
2022-11-28T22:43:00.877Z,47.70
2022-11-28T22:48:05.527Z,38.00
2022-11-28T22:53:15.391Z,60.00
2022-11-28T22:58:19.101Z,45.50
2022-11-28T23:03:22.950Z,59.30
2022-11-28T23:08:30.552Z,65.50
2022-11-28T23:20:45.946Z,66.40
2022-11-28T23:26:41.765Z,51.80
2022-11-28T23:31:47.408Z,51.70
2022-11-28T23:37:40.283Z,48.80
2022-11-28T23:42:44.110Z,55.00
2022-11-28T23:48:02.850Z,46.40
2022-11-28T23:53:06.696Z,49.80
2022-11-28T23:58:10.442Z,56.20
